sensor_id;sensor_type;location;lat;lon;timestamp;P1;durP1;ratioP1;P2;durP2;ratioP2
52674;SDS011;38569;52.722;6.440;2023-05-07T00:01:50;27.35;;;23.83;;
52674;SDS011;38569;52.722;6.440;2023-05-07T00:04:15;27.10;;;24.05;;
52674;SDS011;38569;52.722;6.440;2023-05-07T00:06:41;26.65;;;22.50;;
52674;SDS011;38569;52.722;6.440;2023-05-07T00:09:07;26.73;;;22.17;;
52674;SDS011;38569;52.722;6.440;2023-05-07T00:11:33;27.55;;;21.98;;
52674;SDS011;38569;52.722;6.440;2023-05-07T00:13:58;30.60;;;22.88;;
52674;SDS011;38569;52.722;6.440;2023-05-07T00:16:24;29.33;;;22.83;;
52674;SDS011;38569;52.722;6.440;2023-05-07T00:18:50;26.42;;;23.52;;
52674;SDS011;38569;52.722;6.440;2023-05-07T00:21:16;27.13;;;21.35;;
52674;SDS011;38569;52.722;6.440;2023-05-07T00:23:41;28.98;;;23.23;;
52674;SDS011;38569;52.722;6.440;2023-05-07T00:26:07;28.20;;;22.55;;
52674;SDS011;38569;52.722;6.440;2023-05-07T00:28:33;28.73;;;23.50;;
52674;SDS011;38569;52.722;6.440;2023-05-07T00:30:59;24.20;;;21.02;;
52674;SDS011;38569;52.722;6.440;2023-05-07T00:33:24;25.20;;;20.85;;
52674;SDS011;38569;52.722;6.440;2023-05-07T00:35:52;24.98;;;19.83;;
52674;SDS011;38569;52.722;6.440;2023-05-07T00:38:19;26.83;;;20.48;;
52674;SDS011;38569;52.722;6.440;2023-05-07T00:40:45;22.67;;;18.50;;
52674;SDS011;38569;52.722;6.440;2023-05-07T00:43:11;23.88;;;18.65;;
52674;SDS011;38569;52.722;6.440;2023-05-07T00:45:37;28.52;;;18.95;;
52674;SDS011;38569;52.722;6.440;2023-05-07T00:48:03;23.65;;;16.85;;
52674;SDS011;38569;52.722;6.440;2023-05-07T00:50:30;21.35;;;17.30;;
52674;SDS011;38569;52.722;6.440;2023-05-07T00:52:57;23.95;;;16.38;;
52674;SDS011;38569;52.722;6.440;2023-05-07T00:55:24;25.98;;;17.83;;
52674;SDS011;38569;52.722;6.440;2023-05-07T00:57:50;18.77;;;16.77;;
52674;SDS011;38569;52.722;6.440;2023-05-07T01:00:17;20.42;;;15.90;;
52674;SDS011;38569;52.722;6.440;2023-05-07T01:02:43;21.15;;;15.98;;
52674;SDS011;38569;52.722;6.440;2023-05-07T01:05:14;25.33;;;18.38;;
52674;SDS011;38569;52.722;6.440;2023-05-07T01:07:42;23.20;;;15.77;;
52674;SDS011;38569;52.722;6.440;2023-05-07T01:10:08;22.20;;;16.38;;
52674;SDS011;38569;52.722;6.440;2023-05-07T01:12:35;18.88;;;15.50;;
52674;SDS011;38569;52.722;6.440;2023-05-07T01:15:03;21.85;;;17.63;;
52674;SDS011;38569;52.722;6.440;2023-05-07T01:17:33;22.77;;;18.05;;
52674;SDS011;38569;52.722;6.440;2023-05-07T01:20:06;19.95;;;16.60;;
52674;SDS011;38569;52.722;6.440;2023-05-07T01:22:37;21.48;;;17.70;;
52674;SDS011;38569;52.722;6.440;2023-05-07T01:25:04;21.40;;;18.05;;
52674;SDS011;38569;52.722;6.440;2023-05-07T01:27:31;22.67;;;17.35;;
52674;SDS011;38569;52.722;6.440;2023-05-07T01:29:58;18.65;;;15.75;;
52674;SDS011;38569;52.722;6.440;2023-05-07T01:32:27;20.90;;;16.60;;
52674;SDS011;38569;52.722;6.440;2023-05-07T01:34:58;21.70;;;16.92;;
52674;SDS011;38569;52.722;6.440;2023-05-07T01:37:27;21.98;;;17.33;;
52674;SDS011;38569;52.722;6.440;2023-05-07T01:39:54;18.77;;;15.95;;
52674;SDS011;38569;52.722;6.440;2023-05-07T01:42:20;22.90;;;16.33;;
52674;SDS011;38569;52.722;6.440;2023-05-07T01:44:47;19.90;;;15.70;;
52674;SDS011;38569;52.722;6.440;2023-05-07T01:47:13;23.13;;;17.95;;
52674;SDS011;38569;52.722;6.440;2023-05-07T01:49:39;25.45;;;18.17;;
52674;SDS011;38569;52.722;6.440;2023-05-07T01:52:06;22.30;;;17.83;;
52674;SDS011;38569;52.722;6.440;2023-05-07T01:54:32;21.75;;;18.90;;
52674;SDS011;38569;52.722;6.440;2023-05-07T01:56:57;24.13;;;19.27;;
52674;SDS011;38569;52.722;6.440;2023-05-07T01:59:23;22.20;;;19.88;;
52674;SDS011;38569;52.722;6.440;2023-05-07T02:01:49;28.90;;;20.77;;
52674;SDS011;38569;52.722;6.440;2023-05-07T02:04:14;26.48;;;19.98;;
52674;SDS011;38569;52.722;6.440;2023-05-07T02:06:40;24.40;;;21.00;;
52674;SDS011;38569;52.722;6.440;2023-05-07T02:09:06;28.83;;;22.30;;
52674;SDS011;38569;52.722;6.440;2023-05-07T02:11:34;24.73;;;20.23;;
52674;SDS011;38569;52.722;6.440;2023-05-07T02:13:59;25.83;;;20.38;;
52674;SDS011;38569;52.722;6.440;2023-05-07T02:16:25;29.92;;;22.50;;
52674;SDS011;38569;52.722;6.440;2023-05-07T02:18:51;28.35;;;21.80;;
52674;SDS011;38569;52.722;6.440;2023-05-07T02:21:17;28.50;;;22.30;;
52674;SDS011;38569;52.722;6.440;2023-05-07T02:23:42;25.85;;;21.67;;
52674;SDS011;38569;52.722;6.440;2023-05-07T02:26:08;24.58;;;21.10;;
52674;SDS011;38569;52.722;6.440;2023-05-07T02:28:36;26.27;;;21.98;;
52674;SDS011;38569;52.722;6.440;2023-05-07T02:31:04;24.15;;;21.45;;
52674;SDS011;38569;52.722;6.440;2023-05-07T02:33:32;30.38;;;23.75;;
52674;SDS011;38569;52.722;6.440;2023-05-07T02:36:09;27.40;;;22.08;;
52674;SDS011;38569;52.722;6.440;2023-05-07T02:38:35;26.63;;;22.05;;
52674;SDS011;38569;52.722;6.440;2023-05-07T02:41:01;30.17;;;22.38;;
52674;SDS011;38569;52.722;6.440;2023-05-07T02:43:27;32.92;;;24.13;;
52674;SDS011;38569;52.722;6.440;2023-05-07T02:46:00;27.23;;;23.33;;
52674;SDS011;38569;52.722;6.440;2023-05-07T02:48:27;25.77;;;21.27;;
52674;SDS011;38569;52.722;6.440;2023-05-07T02:50:53;28.40;;;23.23;;
52674;SDS011;38569;52.722;6.440;2023-05-07T02:53:19;30.70;;;24.40;;
52674;SDS011;38569;52.722;6.440;2023-05-07T02:55:45;29.30;;;22.95;;
52674;SDS011;38569;52.722;6.440;2023-05-07T02:58:10;31.95;;;24.98;;
52674;SDS011;38569;52.722;6.440;2023-05-07T03:00:36;29.42;;;23.20;;
52674;SDS011;38569;52.722;6.440;2023-05-07T03:03:02;31.52;;;23.85;;
52674;SDS011;38569;52.722;6.440;2023-05-07T03:05:28;32.00;;;24.48;;
52674;SDS011;38569;52.722;6.440;2023-05-07T03:07:53;28.40;;;24.60;;
52674;SDS011;38569;52.722;6.440;2023-05-07T03:10:19;30.55;;;24.10;;
52674;SDS011;38569;52.722;6.440;2023-05-07T03:12:45;36.53;;;24.83;;
52674;SDS011;38569;52.722;6.440;2023-05-07T03:15:10;29.05;;;24.92;;
52674;SDS011;38569;52.722;6.440;2023-05-07T03:17:37;30.83;;;25.17;;
52674;SDS011;38569;52.722;6.440;2023-05-07T03:20:04;31.15;;;26.02;;
52674;SDS011;38569;52.722;6.440;2023-05-07T03:22:30;33.35;;;25.63;;
52674;SDS011;38569;52.722;6.440;2023-05-07T03:24:55;32.45;;;25.50;;
52674;SDS011;38569;52.722;6.440;2023-05-07T03:27:21;35.65;;;26.88;;
52674;SDS011;38569;52.722;6.440;2023-05-07T03:29:47;39.67;;;27.58;;
52674;SDS011;38569;52.722;6.440;2023-05-07T03:32:13;32.00;;;26.33;;
52674;SDS011;38569;52.722;6.440;2023-05-07T03:34:39;33.38;;;27.20;;
52674;SDS011;38569;52.722;6.440;2023-05-07T03:37:05;31.52;;;26.80;;
52674;SDS011;38569;52.722;6.440;2023-05-07T03:39:31;36.58;;;28.70;;
52674;SDS011;38569;52.722;6.440;2023-05-07T03:41:57;35.00;;;28.00;;
52674;SDS011;38569;52.722;6.440;2023-05-07T03:44:23;42.33;;;29.35;;
52674;SDS011;38569;52.722;6.440;2023-05-07T03:46:49;36.00;;;27.20;;
52674;SDS011;38569;52.722;6.440;2023-05-07T03:49:14;39.08;;;29.55;;
52674;SDS011;38569;52.722;6.440;2023-05-07T03:51:40;38.78;;;29.88;;
52674;SDS011;38569;52.722;6.440;2023-05-07T03:54:06;39.28;;;29.63;;
52674;SDS011;38569;52.722;6.440;2023-05-07T03:56:34;41.38;;;30.75;;
52674;SDS011;38569;52.722;6.440;2023-05-07T03:59:00;44.35;;;29.70;;
52674;SDS011;38569;52.722;6.440;2023-05-07T04:01:26;39.83;;;28.70;;
52674;SDS011;38569;52.722;6.440;2023-05-07T04:03:52;41.85;;;32.42;;
52674;SDS011;38569;52.722;6.440;2023-05-07T04:06:17;45.17;;;31.38;;
52674;SDS011;38569;52.722;6.440;2023-05-07T04:08:43;47.75;;;32.75;;
52674;SDS011;38569;52.722;6.440;2023-05-07T04:11:09;42.35;;;32.42;;
52674;SDS011;38569;52.722;6.440;2023-05-07T04:13:35;43.60;;;31.55;;
52674;SDS011;38569;52.722;6.440;2023-05-07T04:16:02;43.10;;;32.63;;
52674;SDS011;38569;52.722;6.440;2023-05-07T04:18:29;43.15;;;32.55;;
52674;SDS011;38569;52.722;6.440;2023-05-07T04:20:54;44.83;;;32.03;;
52674;SDS011;38569;52.722;6.440;2023-05-07T04:23:20;40.53;;;32.00;;
52674;SDS011;38569;52.722;6.440;2023-05-07T04:25:46;43.88;;;32.65;;
52674;SDS011;38569;52.722;6.440;2023-05-07T04:28:11;40.47;;;31.55;;
52674;SDS011;38569;52.722;6.440;2023-05-07T04:30:37;46.45;;;34.45;;
52674;SDS011;38569;52.722;6.440;2023-05-07T04:33:03;45.70;;;33.97;;
52674;SDS011;38569;52.722;6.440;2023-05-07T04:35:29;45.55;;;34.38;;
52674;SDS011;38569;52.722;6.440;2023-05-07T04:37:56;44.65;;;34.60;;
52674;SDS011;38569;52.722;6.440;2023-05-07T04:40:21;44.20;;;34.58;;
52674;SDS011;38569;52.722;6.440;2023-05-07T04:42:47;45.85;;;34.67;;
52674;SDS011;38569;52.722;6.440;2023-05-07T04:45:14;43.72;;;32.42;;
52674;SDS011;38569;52.722;6.440;2023-05-07T04:47:40;44.17;;;30.08;;
52674;SDS011;38569;52.722;6.440;2023-05-07T04:50:06;42.20;;;32.28;;
52674;SDS011;38569;52.722;6.440;2023-05-07T04:52:33;43.15;;;31.85;;
52674;SDS011;38569;52.722;6.440;2023-05-07T04:54:59;46.30;;;33.33;;
52674;SDS011;38569;52.722;6.440;2023-05-07T04:57:26;42.92;;;32.75;;
52674;SDS011;38569;52.722;6.440;2023-05-07T04:59:52;41.50;;;32.70;;
52674;SDS011;38569;52.722;6.440;2023-05-07T05:02:18;40.28;;;32.28;;
52674;SDS011;38569;52.722;6.440;2023-05-07T05:04:44;46.20;;;32.80;;
52674;SDS011;38569;52.722;6.440;2023-05-07T05:07:10;45.60;;;32.50;;
52674;SDS011;38569;52.722;6.440;2023-05-07T05:09:36;39.97;;;30.88;;
52674;SDS011;38569;52.722;6.440;2023-05-07T05:12:02;39.95;;;29.55;;
52674;SDS011;38569;52.722;6.440;2023-05-07T05:14:28;39.80;;;32.40;;
52674;SDS011;38569;52.722;6.440;2023-05-07T05:16:54;42.38;;;32.58;;
52674;SDS011;38569;52.722;6.440;2023-05-07T05:19:20;37.95;;;31.85;;
52674;SDS011;38569;52.722;6.440;2023-05-07T05:21:48;40.67;;;30.17;;
52674;SDS011;38569;52.722;6.440;2023-05-07T05:24:14;40.80;;;31.35;;
52674;SDS011;38569;52.722;6.440;2023-05-07T05:26:40;41.42;;;31.08;;
52674;SDS011;38569;52.722;6.440;2023-05-07T05:29:06;41.20;;;31.75;;
52674;SDS011;38569;52.722;6.440;2023-05-07T05:31:32;38.17;;;30.20;;
52674;SDS011;38569;52.722;6.440;2023-05-07T05:33:58;36.47;;;30.92;;
52674;SDS011;38569;52.722;6.440;2023-05-07T05:36:24;37.47;;;29.15;;
52674;SDS011;38569;52.722;6.440;2023-05-07T05:38:50;38.55;;;29.85;;
52674;SDS011;38569;52.722;6.440;2023-05-07T05:41:16;37.58;;;28.15;;
52674;SDS011;38569;52.722;6.440;2023-05-07T05:43:42;34.75;;;28.10;;
52674;SDS011;38569;52.722;6.440;2023-05-07T05:46:08;38.72;;;29.30;;
52674;SDS011;38569;52.722;6.440;2023-05-07T05:48:36;38.10;;;30.15;;
52674;SDS011;38569;52.722;6.440;2023-05-07T05:51:01;37.80;;;28.45;;
52674;SDS011;38569;52.722;6.440;2023-05-07T05:53:27;31.73;;;25.75;;
52674;SDS011;38569;52.722;6.440;2023-05-07T05:55:53;37.28;;;28.52;;
52674;SDS011;38569;52.722;6.440;2023-05-07T05:58:19;35.90;;;27.50;;
52674;SDS011;38569;52.722;6.440;2023-05-07T06:00:45;34.50;;;27.15;;
52674;SDS011;38569;52.722;6.440;2023-05-07T06:03:13;36.80;;;28.90;;
52674;SDS011;38569;52.722;6.440;2023-05-07T06:05:39;32.83;;;25.60;;
52674;SDS011;38569;52.722;6.440;2023-05-07T06:08:04;32.63;;;26.92;;
52674;SDS011;38569;52.722;6.440;2023-05-07T06:10:30;31.50;;;26.90;;
52674;SDS011;38569;52.722;6.440;2023-05-07T06:12:56;34.30;;;28.35;;
52674;SDS011;38569;52.722;6.440;2023-05-07T06:15:22;35.70;;;28.65;;
52674;SDS011;38569;52.722;6.440;2023-05-07T06:17:47;32.95;;;27.08;;
52674;SDS011;38569;52.722;6.440;2023-05-07T06:20:14;34.72;;;26.73;;
52674;SDS011;38569;52.722;6.440;2023-05-07T06:22:40;35.75;;;26.98;;
52674;SDS011;38569;52.722;6.440;2023-05-07T06:25:05;36.42;;;26.80;;
52674;SDS011;38569;52.722;6.440;2023-05-07T06:27:31;39.53;;;28.70;;
52674;SDS011;38569;52.722;6.440;2023-05-07T06:29:57;33.92;;;27.95;;
52674;SDS011;38569;52.722;6.440;2023-05-07T06:32:23;32.85;;;26.02;;
52674;SDS011;38569;52.722;6.440;2023-05-07T06:34:49;32.35;;;26.13;;
52674;SDS011;38569;52.722;6.440;2023-05-07T06:37:14;32.35;;;25.10;;
52674;SDS011;38569;52.722;6.440;2023-05-07T06:39:40;34.40;;;28.48;;
52674;SDS011;38569;52.722;6.440;2023-05-07T06:42:06;31.42;;;26.30;;
52674;SDS011;38569;52.722;6.440;2023-05-07T06:44:31;33.05;;;26.67;;
52674;SDS011;38569;52.722;6.440;2023-05-07T06:46:57;31.27;;;26.20;;
52674;SDS011;38569;52.722;6.440;2023-05-07T06:49:23;29.27;;;24.70;;
52674;SDS011;38569;52.722;6.440;2023-05-07T06:51:49;35.05;;;26.98;;
52674;SDS011;38569;52.722;6.440;2023-05-07T06:54:15;29.17;;;25.63;;
52674;SDS011;38569;52.722;6.440;2023-05-07T06:56:40;31.17;;;27.13;;
52674;SDS011;38569;52.722;6.440;2023-05-07T06:59:06;34.58;;;26.33;;
52674;SDS011;38569;52.722;6.440;2023-05-07T07:01:32;31.60;;;26.48;;
52674;SDS011;38569;52.722;6.440;2023-05-07T07:03:58;31.90;;;25.90;;
52674;SDS011;38569;52.722;6.440;2023-05-07T07:06:23;32.50;;;25.85;;
52674;SDS011;38569;52.722;6.440;2023-05-07T07:08:50;34.78;;;27.73;;
52674;SDS011;38569;52.722;6.440;2023-05-07T07:11:16;34.00;;;28.73;;
52674;SDS011;38569;52.722;6.440;2023-05-07T07:13:41;31.83;;;27.25;;
52674;SDS011;38569;52.722;6.440;2023-05-07T07:16:08;31.60;;;24.45;;
52674;SDS011;38569;52.722;6.440;2023-05-07T07:18:34;33.45;;;27.70;;
52674;SDS011;38569;52.722;6.440;2023-05-07T07:21:00;33.05;;;25.67;;
52674;SDS011;38569;52.722;6.440;2023-05-07T07:23:26;34.33;;;26.63;;
52674;SDS011;38569;52.722;6.440;2023-05-07T07:25:52;34.75;;;26.25;;
52674;SDS011;38569;52.722;6.440;2023-05-07T07:28:20;32.70;;;27.27;;
52674;SDS011;38569;52.722;6.440;2023-05-07T07:30:46;30.48;;;25.58;;
52674;SDS011;38569;52.722;6.440;2023-05-07T07:33:12;31.05;;;26.00;;
52674;SDS011;38569;52.722;6.440;2023-05-07T07:35:38;32.63;;;27.77;;
52674;SDS011;38569;52.722;6.440;2023-05-07T07:38:03;31.73;;;25.55;;
52674;SDS011;38569;52.722;6.440;2023-05-07T07:40:29;29.58;;;25.70;;
52674;SDS011;38569;52.722;6.440;2023-05-07T07:42:56;32.95;;;26.55;;
52674;SDS011;38569;52.722;6.440;2023-05-07T07:45:22;33.20;;;26.00;;
52674;SDS011;38569;52.722;6.440;2023-05-07T07:47:48;33.65;;;25.60;;
52674;SDS011;38569;52.722;6.440;2023-05-07T07:50:14;30.38;;;25.85;;
52674;SDS011;38569;52.722;6.440;2023-05-07T07:52:39;31.05;;;23.98;;
52674;SDS011;38569;52.722;6.440;2023-05-07T07:55:06;29.65;;;25.70;;
52674;SDS011;38569;52.722;6.440;2023-05-07T07:57:32;32.40;;;26.17;;
52674;SDS011;38569;52.722;6.440;2023-05-07T07:59:58;34.53;;;24.42;;
52674;SDS011;38569;52.722;6.440;2023-05-07T08:02:23;31.52;;;25.67;;
52674;SDS011;38569;52.722;6.440;2023-05-07T08:04:49;30.58;;;26.48;;
52674;SDS011;38569;52.722;6.440;2023-05-07T08:07:15;28.98;;;24.50;;
52674;SDS011;38569;52.722;6.440;2023-05-07T08:09:43;29.98;;;24.70;;
52674;SDS011;38569;52.722;6.440;2023-05-07T08:12:09;30.83;;;26.38;;
52674;SDS011;38569;52.722;6.440;2023-05-07T08:14:35;31.13;;;25.48;;
52674;SDS011;38569;52.722;6.440;2023-05-07T08:17:02;31.90;;;26.20;;
52674;SDS011;38569;52.722;6.440;2023-05-07T08:19:28;28.63;;;23.95;;
52674;SDS011;38569;52.722;6.440;2023-05-07T08:21:53;32.72;;;27.77;;
52674;SDS011;38569;52.722;6.440;2023-05-07T08:24:20;29.40;;;24.88;;
52674;SDS011;38569;52.722;6.440;2023-05-07T08:26:46;33.70;;;27.45;;
52674;SDS011;38569;52.722;6.440;2023-05-07T08:29:11;29.20;;;25.98;;
52674;SDS011;38569;52.722;6.440;2023-05-07T08:31:37;31.13;;;24.83;;
52674;SDS011;38569;52.722;6.440;2023-05-07T08:34:06;29.75;;;25.08;;
52674;SDS011;38569;52.722;6.440;2023-05-07T08:36:32;31.58;;;25.15;;
52674;SDS011;38569;52.722;6.440;2023-05-07T08:38:59;31.08;;;24.60;;
52674;SDS011;38569;52.722;6.440;2023-05-07T08:41:24;30.08;;;25.20;;
52674;SDS011;38569;52.722;6.440;2023-05-07T08:43:50;28.50;;;23.40;;
52674;SDS011;38569;52.722;6.440;2023-05-07T08:46:17;27.45;;;23.58;;
52674;SDS011;38569;52.722;6.440;2023-05-07T08:48:45;25.45;;;21.92;;
52674;SDS011;38569;52.722;6.440;2023-05-07T08:51:13;27.73;;;23.90;;
52674;SDS011;38569;52.722;6.440;2023-05-07T08:53:43;25.75;;;22.58;;
52674;SDS011;38569;52.722;6.440;2023-05-07T08:56:09;26.05;;;21.85;;
52674;SDS011;38569;52.722;6.440;2023-05-07T08:58:35;24.73;;;21.80;;
52674;SDS011;38569;52.722;6.440;2023-05-07T09:01:02;28.55;;;24.15;;
52674;SDS011;38569;52.722;6.440;2023-05-07T09:03:41;28.27;;;24.15;;
52674;SDS011;38569;52.722;6.440;2023-05-07T09:06:10;25.25;;;22.70;;
52674;SDS011;38569;52.722;6.440;2023-05-07T09:08:36;26.40;;;21.92;;
52674;SDS011;38569;52.722;6.440;2023-05-07T09:11:02;26.27;;;22.63;;
52674;SDS011;38569;52.722;6.440;2023-05-07T09:13:28;26.77;;;23.50;;
52674;SDS011;38569;52.722;6.440;2023-05-07T09:15:54;25.77;;;22.65;;
52674;SDS011;38569;52.722;6.440;2023-05-07T09:18:21;25.45;;;22.60;;
52674;SDS011;38569;52.722;6.440;2023-05-07T09:20:48;26.92;;;22.27;;
52674;SDS011;38569;52.722;6.440;2023-05-07T09:23:14;26.00;;;23.02;;
52674;SDS011;38569;52.722;6.440;2023-05-07T09:25:40;25.50;;;22.00;;
52674;SDS011;38569;52.722;6.440;2023-05-07T09:28:06;24.90;;;22.25;;
52674;SDS011;38569;52.722;6.440;2023-05-07T09:30:32;25.08;;;21.67;;
52674;SDS011;38569;52.722;6.440;2023-05-07T09:32:59;25.98;;;23.15;;
52674;SDS011;38569;52.722;6.440;2023-05-07T09:35:26;31.98;;;21.80;;
52674;SDS011;38569;52.722;6.440;2023-05-07T09:37:52;24.05;;;20.65;;
52674;SDS011;38569;52.722;6.440;2023-05-07T09:40:20;25.08;;;22.02;;
52674;SDS011;38569;52.722;6.440;2023-05-07T09:42:50;24.55;;;21.92;;
52674;SDS011;38569;52.722;6.440;2023-05-07T09:45:21;24.27;;;21.65;;
52674;SDS011;38569;52.722;6.440;2023-05-07T09:47:50;23.75;;;20.80;;
52674;SDS011;38569;52.722;6.440;2023-05-07T09:51:09;26.02;;;22.75;;
52674;SDS011;38569;52.722;6.440;2023-05-07T09:53:13;24.02;;;21.52;;
52674;SDS011;38569;52.722;6.440;2023-05-07T09:55:41;26.13;;;22.42;;
52674;SDS011;38569;52.722;6.440;2023-05-07T09:58:07;24.60;;;22.00;;
52674;SDS011;38569;52.722;6.440;2023-05-07T10:00:36;25.10;;;21.73;;
52674;SDS011;38569;52.722;6.440;2023-05-07T10:03:05;24.40;;;21.80;;
52674;SDS011;38569;52.722;6.440;2023-05-07T10:05:32;23.40;;;20.92;;
52674;SDS011;38569;52.722;6.440;2023-05-07T10:07:58;22.67;;;20.42;;
52674;SDS011;38569;52.722;6.440;2023-05-07T10:10:26;23.10;;;20.60;;
52674;SDS011;38569;52.722;6.440;2023-05-07T10:12:52;25.45;;;21.45;;
52674;SDS011;38569;52.722;6.440;2023-05-07T10:15:19;23.38;;;21.00;;
52674;SDS011;38569;52.722;6.440;2023-05-07T10:17:45;27.60;;;20.45;;
52674;SDS011;38569;52.722;6.440;2023-05-07T10:20:11;24.80;;;20.77;;
52674;SDS011;38569;52.722;6.440;2023-05-07T10:22:39;25.95;;;21.75;;
52674;SDS011;38569;52.722;6.440;2023-05-07T10:25:29;24.25;;;21.27;;
52674;SDS011;38569;52.722;6.440;2023-05-07T10:27:55;24.92;;;20.60;;
52674;SDS011;38569;52.722;6.440;2023-05-07T10:30:45;23.73;;;21.27;;
52674;SDS011;38569;52.722;6.440;2023-05-07T10:33:35;23.73;;;21.23;;
52674;SDS011;38569;52.722;6.440;2023-05-07T10:36:02;21.98;;;19.65;;
52674;SDS011;38569;52.722;6.440;2023-05-07T10:38:30;21.77;;;18.95;;
52674;SDS011;38569;52.722;6.440;2023-05-07T10:40:56;21.60;;;19.30;;
52674;SDS011;38569;52.722;6.440;2023-05-07T10:43:22;19.52;;;17.42;;
52674;SDS011;38569;52.722;6.440;2023-05-07T10:49:10;21.75;;;19.42;;
52674;SDS011;38569;52.722;6.440;2023-05-07T10:51:31;22.98;;;20.40;;
52674;SDS011;38569;52.722;6.440;2023-05-07T10:56:36;21.55;;;19.33;;
52674;SDS011;38569;52.722;6.440;2023-05-07T10:59:45;22.83;;;19.33;;
52674;SDS011;38569;52.722;6.440;2023-05-07T11:04:29;23.15;;;20.58;;
52674;SDS011;38569;52.722;6.440;2023-05-07T11:12:16;22.25;;;19.48;;
52674;SDS011;38569;52.722;6.440;2023-05-07T11:15:36;20.85;;;18.35;;
52674;SDS011;38569;52.722;6.440;2023-05-07T11:18:04;19.75;;;17.65;;
52674;SDS011;38569;52.722;6.440;2023-05-07T11:26:02;19.30;;;17.30;;
52674;SDS011;38569;52.722;6.440;2023-05-07T11:28:39;19.33;;;16.85;;
52674;SDS011;38569;52.722;6.440;2023-05-07T11:31:07;18.48;;;16.33;;
52674;SDS011;38569;52.722;6.440;2023-05-07T11:33:33;18.55;;;16.70;;
52674;SDS011;38569;52.722;6.440;2023-05-07T11:36:00;20.05;;;16.23;;
52674;SDS011;38569;52.722;6.440;2023-05-07T11:38:34;19.02;;;16.92;;
52674;SDS011;38569;52.722;6.440;2023-05-07T11:41:01;17.95;;;16.10;;
52674;SDS011;38569;52.722;6.440;2023-05-07T11:43:27;19.65;;;16.13;;
52674;SDS011;38569;52.722;6.440;2023-05-07T11:45:53;18.27;;;16.50;;
52674;SDS011;38569;52.722;6.440;2023-05-07T11:48:19;17.13;;;14.32;;
52674;SDS011;38569;52.722;6.440;2023-05-07T11:50:53;16.48;;;14.88;;
52674;SDS011;38569;52.722;6.440;2023-05-07T11:53:25;15.00;;;13.23;;
52674;SDS011;38569;52.722;6.440;2023-05-07T11:55:55;15.98;;;14.30;;
52674;SDS011;38569;52.722;6.440;2023-05-07T11:58:22;16.05;;;14.32;;
52674;SDS011;38569;52.722;6.440;2023-05-07T12:00:49;16.45;;;14.85;;
52674;SDS011;38569;52.722;6.440;2023-05-07T12:03:15;16.77;;;15.02;;
52674;SDS011;38569;52.722;6.440;2023-05-07T12:05:41;16.15;;;14.55;;
52674;SDS011;38569;52.722;6.440;2023-05-07T12:08:07;16.42;;;14.75;;
52674;SDS011;38569;52.722;6.440;2023-05-07T12:10:33;16.02;;;14.32;;
52674;SDS011;38569;52.722;6.440;2023-05-07T12:12:58;17.48;;;15.32;;
52674;SDS011;38569;52.722;6.440;2023-05-07T12:15:24;18.10;;;15.00;;
52674;SDS011;38569;52.722;6.440;2023-05-07T12:17:50;16.77;;;15.00;;
52674;SDS011;38569;52.722;6.440;2023-05-07T12:20:17;16.30;;;14.63;;
52674;SDS011;38569;52.722;6.440;2023-05-07T12:22:43;16.52;;;14.73;;
52674;SDS011;38569;52.722;6.440;2023-05-07T12:25:09;17.88;;;15.70;;
52674;SDS011;38569;52.722;6.440;2023-05-07T12:27:36;18.35;;;16.55;;
52674;SDS011;38569;52.722;6.440;2023-05-07T12:30:04;17.30;;;15.52;;
52674;SDS011;38569;52.722;6.440;2023-05-07T12:32:30;17.60;;;15.80;;
52674;SDS011;38569;52.722;6.440;2023-05-07T12:35:01;17.67;;;15.85;;
52674;SDS011;38569;52.722;6.440;2023-05-07T12:37:27;17.52;;;15.07;;
52674;SDS011;38569;52.722;6.440;2023-05-07T12:40:05;20.15;;;17.00;;
52674;SDS011;38569;52.722;6.440;2023-05-07T12:42:35;18.88;;;16.88;;
52674;SDS011;38569;52.722;6.440;2023-05-07T12:45:11;18.83;;;16.88;;
52674;SDS011;38569;52.722;6.440;2023-05-07T12:47:43;20.65;;;17.25;;
52674;SDS011;38569;52.722;6.440;2023-05-07T12:50:12;17.90;;;16.05;;
52674;SDS011;38569;52.722;6.440;2023-05-07T12:52:39;20.88;;;18.63;;
52674;SDS011;38569;52.722;6.440;2023-05-07T12:55:08;19.85;;;17.77;;
52674;SDS011;38569;52.722;6.440;2023-05-07T12:57:38;18.77;;;16.90;;
52674;SDS011;38569;52.722;6.440;2023-05-07T13:00:05;16.70;;;15.00;;
52674;SDS011;38569;52.722;6.440;2023-05-07T13:02:32;19.58;;;17.58;;
52674;SDS011;38569;52.722;6.440;2023-05-07T13:05:11;17.15;;;15.38;;
52674;SDS011;38569;52.722;6.440;2023-05-07T13:07:37;18.65;;;16.75;;
52674;SDS011;38569;52.722;6.440;2023-05-07T13:10:03;18.90;;;16.92;;
52674;SDS011;38569;52.722;6.440;2023-05-07T13:12:29;19.35;;;17.45;;
52674;SDS011;38569;52.722;6.440;2023-05-07T13:14:55;20.05;;;17.67;;
52674;SDS011;38569;52.722;6.440;2023-05-07T13:17:21;20.13;;;17.25;;
52674;SDS011;38569;52.722;6.440;2023-05-07T13:19:46;20.02;;;17.60;;
52674;SDS011;38569;52.722;6.440;2023-05-07T13:22:12;19.75;;;16.83;;
52674;SDS011;38569;52.722;6.440;2023-05-07T13:24:38;20.17;;;17.50;;
52674;SDS011;38569;52.722;6.440;2023-05-07T13:27:06;18.75;;;16.85;;
52674;SDS011;38569;52.722;6.440;2023-05-07T13:29:32;20.70;;;18.48;;
52674;SDS011;38569;52.722;6.440;2023-05-07T13:31:58;20.65;;;17.08;;
52674;SDS011;38569;52.722;6.440;2023-05-07T13:34:25;21.13;;;17.75;;
52674;SDS011;38569;52.722;6.440;2023-05-07T13:36:50;19.00;;;17.05;;
52674;SDS011;38569;52.722;6.440;2023-05-07T13:39:16;19.55;;;17.00;;
52674;SDS011;38569;52.722;6.440;2023-05-07T13:41:42;19.38;;;17.35;;
52674;SDS011;38569;52.722;6.440;2023-05-07T13:44:07;19.20;;;17.25;;
52674;SDS011;38569;52.722;6.440;2023-05-07T13:46:33;18.48;;;16.67;;
52674;SDS011;38569;52.722;6.440;2023-05-07T13:48:59;18.15;;;16.35;;
52674;SDS011;38569;52.722;6.440;2023-05-07T13:51:25;18.75;;;16.85;;
52674;SDS011;38569;52.722;6.440;2023-05-07T13:53:50;17.40;;;15.70;;
52674;SDS011;38569;52.722;6.440;2023-05-07T13:56:17;17.65;;;15.90;;
52674;SDS011;38569;52.722;6.440;2023-05-07T13:58:43;17.75;;;15.45;;
52674;SDS011;38569;52.722;6.440;2023-05-07T14:01:09;17.92;;;16.05;;
52674;SDS011;38569;52.722;6.440;2023-05-07T14:03:35;18.42;;;16.52;;
52674;SDS011;38569;52.722;6.440;2023-05-07T14:06:03;17.35;;;15.35;;
52674;SDS011;38569;52.722;6.440;2023-05-07T14:08:28;18.33;;;16.27;;
52674;SDS011;38569;52.722;6.440;2023-05-07T14:10:54;16.90;;;15.27;;
52674;SDS011;38569;52.722;6.440;2023-05-07T14:13:20;19.52;;;17.52;;
52674;SDS011;38569;52.722;6.440;2023-05-07T14:15:46;18.83;;;16.33;;
52674;SDS011;38569;52.722;6.440;2023-05-07T14:18:13;19.25;;;17.30;;
52674;SDS011;38569;52.722;6.440;2023-05-07T14:20:42;18.58;;;16.67;;
52674;SDS011;38569;52.722;6.440;2023-05-07T14:23:12;21.77;;;18.13;;
52674;SDS011;38569;52.722;6.440;2023-05-07T14:25:38;17.83;;;16.13;;
52674;SDS011;38569;52.722;6.440;2023-05-07T14:28:04;16.92;;;15.32;;
52674;SDS011;38569;52.722;6.440;2023-05-07T14:30:29;16.83;;;15.10;;
52674;SDS011;38569;52.722;6.440;2023-05-07T14:32:55;16.50;;;14.98;;
52674;SDS011;38569;52.722;6.440;2023-05-07T14:35:21;17.33;;;15.73;;
52674;SDS011;38569;52.722;6.440;2023-05-07T14:37:47;16.02;;;14.43;;
52674;SDS011;38569;52.722;6.440;2023-05-07T14:40:12;15.40;;;13.90;;